sensor_id;sensor_type;location;lat;lon;timestamp;P1;durP1;ratioP1;P2;durP2;ratioP2
73642;SDS011;61938;48.652;9.292;2023-04-25T00:02:01;10.40;;;4.43;;
73642;SDS011;61938;48.652;9.292;2023-04-25T00:04:28;9.40;;;4.40;;
73642;SDS011;61938;48.652;9.292;2023-04-25T00:06:54;6.72;;;4.47;;
73642;SDS011;61938;48.652;9.292;2023-04-25T00:09:20;8.18;;;4.88;;
73642;SDS011;61938;48.652;9.292;2023-04-25T00:11:47;7.28;;;4.90;;
73642;SDS011;61938;48.652;9.292;2023-04-25T00:14:12;9.20;;;4.60;;
73642;SDS011;61938;48.652;9.292;2023-04-25T00:16:38;6.32;;;4.22;;
73642;SDS011;61938;48.652;9.292;2023-04-25T00:19:06;7.85;;;4.40;;
73642;SDS011;61938;48.652;9.292;2023-04-25T00:21:32;9.15;;;4.78;;
73642;SDS011;61938;48.652;9.292;2023-04-25T00:23:58;10.43;;;4.45;;
73642;SDS011;61938;48.652;9.292;2023-04-25T00:26:24;9.68;;;5.45;;
73642;SDS011;61938;48.652;9.292;2023-04-25T00:28:50;8.13;;;5.30;;
73642;SDS011;61938;48.652;9.292;2023-04-25T00:31:16;9.75;;;5.60;;
73642;SDS011;61938;48.652;9.292;2023-04-25T00:33:41;8.05;;;4.65;;
73642;SDS011;61938;48.652;9.292;2023-04-25T00:36:07;12.52;;;5.60;;
73642;SDS011;61938;48.652;9.292;2023-04-25T00:38:32;10.30;;;5.28;;
73642;SDS011;61938;48.652;9.292;2023-04-25T00:40:58;8.93;;;5.53;;
73642;SDS011;61938;48.652;9.292;2023-04-25T00:43:27;9.45;;;5.82;;
73642;SDS011;61938;48.652;9.292;2023-04-25T00:45:55;8.85;;;5.60;;
73642;SDS011;61938;48.652;9.292;2023-04-25T00:48:22;9.75;;;5.47;;
73642;SDS011;61938;48.652;9.292;2023-04-25T00:50:51;10.07;;;5.72;;
73642;SDS011;61938;48.652;9.292;2023-04-25T00:53:19;10.50;;;5.82;;
73642;SDS011;61938;48.652;9.292;2023-04-25T00:55:45;15.40;;;7.07;;
73642;SDS011;61938;48.652;9.292;2023-04-25T00:58:11;12.02;;;5.90;;
73642;SDS011;61938;48.652;9.292;2023-04-25T01:00:36;12.57;;;5.90;;
73642;SDS011;61938;48.652;9.292;2023-04-25T01:03:02;12.50;;;6.00;;
73642;SDS011;61938;48.652;9.292;2023-04-25T01:05:28;10.98;;;6.07;;
73642;SDS011;61938;48.652;9.292;2023-04-25T01:07:54;10.85;;;5.80;;
73642;SDS011;61938;48.652;9.292;2023-04-25T01:10:20;10.07;;;6.03;;
73642;SDS011;61938;48.652;9.292;2023-04-25T01:12:46;12.95;;;6.07;;
73642;SDS011;61938;48.652;9.292;2023-04-25T01:15:12;11.80;;;5.80;;
73642;SDS011;61938;48.652;9.292;2023-04-25T01:17:37;11.38;;;6.10;;
73642;SDS011;61938;48.652;9.292;2023-04-25T01:20:04;10.38;;;5.38;;
73642;SDS011;61938;48.652;9.292;2023-04-25T01:22:32;11.18;;;5.78;;
73642;SDS011;61938;48.652;9.292;2023-04-25T01:24:58;8.70;;;5.40;;
73642;SDS011;61938;48.652;9.292;2023-04-25T01:27:25;9.15;;;5.55;;
73642;SDS011;61938;48.652;9.292;2023-04-25T01:29:50;14.35;;;6.07;;
73642;SDS011;61938;48.652;9.292;2023-04-25T01:32:16;12.75;;;5.85;;
73642;SDS011;61938;48.652;9.292;2023-04-25T01:34:42;11.40;;;6.22;;
73642;SDS011;61938;48.652;9.292;2023-04-25T01:37:08;11.77;;;6.00;;
73642;SDS011;61938;48.652;9.292;2023-04-25T01:39:34;13.23;;;5.47;;
73642;SDS011;61938;48.652;9.292;2023-04-25T01:41:59;10.82;;;5.63;;
73642;SDS011;61938;48.652;9.292;2023-04-25T01:44:25;11.98;;;6.63;;
73642;SDS011;61938;48.652;9.292;2023-04-25T01:46:51;11.95;;;7.15;;
73642;SDS011;61938;48.652;9.292;2023-04-25T01:49:18;8.77;;;5.82;;
73642;SDS011;61938;48.652;9.292;2023-04-25T01:51:44;8.48;;;4.95;;
73642;SDS011;61938;48.652;9.292;2023-04-25T01:54:10;10.77;;;5.43;;
73642;SDS011;61938;48.652;9.292;2023-04-25T01:56:37;9.20;;;5.43;;
73642;SDS011;61938;48.652;9.292;2023-04-25T01:59:04;9.98;;;5.88;;
73642;SDS011;61938;48.652;9.292;2023-04-25T02:01:30;9.55;;;5.45;;
73642;SDS011;61938;48.652;9.292;2023-04-25T02:03:56;15.85;;;7.63;;
73642;SDS011;61938;48.652;9.292;2023-04-25T02:06:21;11.52;;;7.30;;
73642;SDS011;61938;48.652;9.292;2023-04-25T02:08:47;12.40;;;6.50;;
73642;SDS011;61938;48.652;9.292;2023-04-25T02:11:12;7.05;;;4.70;;
73642;SDS011;61938;48.652;9.292;2023-04-25T02:13:38;8.85;;;4.53;;
73642;SDS011;61938;48.652;9.292;2023-04-25T02:16:03;8.15;;;5.05;;
73642;SDS011;61938;48.652;9.292;2023-04-25T02:18:29;8.68;;;4.85;;
73642;SDS011;61938;48.652;9.292;2023-04-25T02:20:56;7.22;;;4.95;;
73642;SDS011;61938;48.652;9.292;2023-04-25T02:23:22;7.82;;;5.32;;
73642;SDS011;61938;48.652;9.292;2023-04-25T02:25:48;10.77;;;5.82;;
73642;SDS011;61938;48.652;9.292;2023-04-25T02:28:13;11.25;;;4.90;;
73642;SDS011;61938;48.652;9.292;2023-04-25T02:30:39;7.38;;;4.90;;
73642;SDS011;61938;48.652;9.292;2023-04-25T02:33:05;8.63;;;4.82;;
73642;SDS011;61938;48.652;9.292;2023-04-25T02:35:30;10.05;;;4.65;;
73642;SDS011;61938;48.652;9.292;2023-04-25T02:37:56;10.68;;;4.43;;
73642;SDS011;61938;48.652;9.292;2023-04-25T02:40:21;7.43;;;4.57;;
73642;SDS011;61938;48.652;9.292;2023-04-25T02:42:47;9.70;;;5.03;;
73642;SDS011;61938;48.652;9.292;2023-04-25T02:45:12;7.25;;;4.65;;
73642;SDS011;61938;48.652;9.292;2023-04-25T02:47:38;9.50;;;4.65;;
73642;SDS011;61938;48.652;9.292;2023-04-25T02:50:04;12.73;;;4.55;;
73642;SDS011;61938;48.652;9.292;2023-04-25T02:52:30;5.80;;;3.97;;
73642;SDS011;61938;48.652;9.292;2023-04-25T02:54:55;5.05;;;3.85;;
73642;SDS011;61938;48.652;9.292;2023-04-25T02:57:21;7.22;;;4.13;;
73642;SDS011;61938;48.652;9.292;2023-04-25T02:59:46;13.35;;;4.57;;
73642;SDS011;61938;48.652;9.292;2023-04-25T03:02:12;9.82;;;3.65;;
73642;SDS011;61938;48.652;9.292;2023-04-25T03:04:37;14.13;;;4.35;;
73642;SDS011;61938;48.652;9.292;2023-04-25T03:07:03;21.35;;;5.03;;
73642;SDS011;61938;48.652;9.292;2023-04-25T03:09:29;7.60;;;4.78;;
73642;SDS011;61938;48.652;9.292;2023-04-25T03:11:54;7.72;;;4.47;;
73642;SDS011;61938;48.652;9.292;2023-04-25T03:14:20;9.90;;;4.40;;
73642;SDS011;61938;48.652;9.292;2023-04-25T03:16:45;9.20;;;4.80;;
73642;SDS011;61938;48.652;9.292;2023-04-25T03:19:11;9.75;;;4.78;;
73642;SDS011;61938;48.652;9.292;2023-04-25T03:21:37;9.15;;;4.60;;
73642;SDS011;61938;48.652;9.292;2023-04-25T03:24:03;11.10;;;4.55;;
73642;SDS011;61938;48.652;9.292;2023-04-25T03:26:29;8.52;;;4.63;;
73642;SDS011;61938;48.652;9.292;2023-04-25T03:28:55;9.77;;;4.82;;
73642;SDS011;61938;48.652;9.292;2023-04-25T03:31:21;10.10;;;4.53;;
73642;SDS011;61938;48.652;9.292;2023-04-25T03:33:47;8.48;;;4.95;;
73642;SDS011;61938;48.652;9.292;2023-04-25T03:36:12;10.27;;;4.40;;
73642;SDS011;61938;48.652;9.292;2023-04-25T03:38:38;10.57;;;5.05;;
73642;SDS011;61938;48.652;9.292;2023-04-25T03:41:03;12.40;;;5.70;;
73642;SDS011;61938;48.652;9.292;2023-04-25T03:43:29;14.30;;;5.13;;
73642;SDS011;61938;48.652;9.292;2023-04-25T03:45:55;13.18;;;5.22;;
73642;SDS011;61938;48.652;9.292;2023-04-25T03:48:20;9.00;;;5.30;;
73642;SDS011;61938;48.652;9.292;2023-04-25T03:50:47;9.95;;;5.70;;
73642;SDS011;61938;48.652;9.292;2023-04-25T03:53:12;10.18;;;5.55;;
73642;SDS011;61938;48.652;9.292;2023-04-25T03:55:38;8.80;;;5.20;;
73642;SDS011;61938;48.652;9.292;2023-04-25T03:58:03;17.23;;;5.60;;
73642;SDS011;61938;48.652;9.292;2023-04-25T04:00:29;10.00;;;4.45;;
73642;SDS011;61938;48.652;9.292;2023-04-25T04:02:55;11.32;;;5.10;;
73642;SDS011;61938;48.652;9.292;2023-04-25T04:05:20;10.68;;;5.50;;
73642;SDS011;61938;48.652;9.292;2023-04-25T04:07:47;10.45;;;4.90;;
73642;SDS011;61938;48.652;9.292;2023-04-25T04:10:12;9.68;;;4.88;;
73642;SDS011;61938;48.652;9.292;2023-04-25T04:12:38;15.23;;;5.38;;
73642;SDS011;61938;48.652;9.292;2023-04-25T04:15:04;10.63;;;5.47;;
73642;SDS011;61938;48.652;9.292;2023-04-25T04:17:30;12.75;;;5.57;;
73642;SDS011;61938;48.652;9.292;2023-04-25T04:19:56;9.10;;;6.10;;
73642;SDS011;61938;48.652;9.292;2023-04-25T04:22:22;14.23;;;5.57;;
73642;SDS011;61938;48.652;9.292;2023-04-25T04:24:48;10.10;;;5.10;;
73642;SDS011;61938;48.652;9.292;2023-04-25T04:27:15;9.23;;;5.00;;
73642;SDS011;61938;48.652;9.292;2023-04-25T04:29:44;11.52;;;5.15;;
73642;SDS011;61938;48.652;9.292;2023-04-25T04:32:10;9.32;;;4.78;;
73642;SDS011;61938;48.652;9.292;2023-04-25T04:34:37;12.05;;;5.50;;
73642;SDS011;61938;48.652;9.292;2023-04-25T04:37:04;10.98;;;5.18;;
73642;SDS011;61938;48.652;9.292;2023-04-25T04:39:30;13.23;;;5.05;;
73642;SDS011;61938;48.652;9.292;2023-04-25T04:41:56;10.57;;;4.88;;
73642;SDS011;61938;48.652;9.292;2023-04-25T04:44:21;12.05;;;5.13;;
73642;SDS011;61938;48.652;9.292;2023-04-25T04:46:47;14.60;;;5.43;;
73642;SDS011;61938;48.652;9.292;2023-04-25T04:49:13;14.75;;;4.93;;
73642;SDS011;61938;48.652;9.292;2023-04-25T04:51:39;10.18;;;5.25;;
73642;SDS011;61938;48.652;9.292;2023-04-25T04:54:06;11.30;;;5.85;;
73642;SDS011;61938;48.652;9.292;2023-04-25T04:56:31;12.25;;;6.07;;
73642;SDS011;61938;48.652;9.292;2023-04-25T04:58:57;12.50;;;5.50;;
73642;SDS011;61938;48.652;9.292;2023-04-25T05:01:23;12.63;;;5.88;;
73642;SDS011;61938;48.652;9.292;2023-04-25T05:03:49;16.20;;;6.15;;
73642;SDS011;61938;48.652;9.292;2023-04-25T05:06:16;7.88;;;5.07;;
73642;SDS011;61938;48.652;9.292;2023-04-25T05:08:43;10.75;;;5.18;;
73642;SDS011;61938;48.652;9.292;2023-04-25T05:11:08;11.55;;;4.97;;
73642;SDS011;61938;48.652;9.292;2023-04-25T05:13:34;14.10;;;4.95;;
73642;SDS011;61938;48.652;9.292;2023-04-25T05:16:00;8.57;;;4.13;;
73642;SDS011;61938;48.652;9.292;2023-04-25T05:18:25;13.35;;;4.40;;
73642;SDS011;61938;48.652;9.292;2023-04-25T05:20:51;10.70;;;4.68;;
73642;SDS011;61938;48.652;9.292;2023-04-25T05:23:18;9.02;;;3.95;;
73642;SDS011;61938;48.652;9.292;2023-04-25T05:25:43;8.90;;;4.18;;
73642;SDS011;61938;48.652;9.292;2023-04-25T05:28:10;11.38;;;4.35;;
73642;SDS011;61938;48.652;9.292;2023-04-25T05:30:37;9.20;;;4.05;;
73642;SDS011;61938;48.652;9.292;2023-04-25T05:33:02;8.27;;;4.75;;
73642;SDS011;61938;48.652;9.292;2023-04-25T05:35:28;11.25;;;5.00;;
73642;SDS011;61938;48.652;9.292;2023-04-25T05:37:53;10.15;;;4.75;;
73642;SDS011;61938;48.652;9.292;2023-04-25T05:40:19;9.07;;;4.30;;
73642;SDS011;61938;48.652;9.292;2023-04-25T05:42:44;8.75;;;4.20;;
73642;SDS011;61938;48.652;9.292;2023-04-25T05:45:10;10.85;;;4.00;;
73642;SDS011;61938;48.652;9.292;2023-04-25T05:47:35;6.78;;;4.15;;
73642;SDS011;61938;48.652;9.292;2023-04-25T05:50:01;8.27;;;4.38;;
73642;SDS011;61938;48.652;9.292;2023-04-25T05:52:27;7.95;;;4.65;;
73642;SDS011;61938;48.652;9.292;2023-04-25T05:54:52;6.88;;;4.10;;
73642;SDS011;61938;48.652;9.292;2023-04-25T05:57:24;13.68;;;5.10;;
73642;SDS011;61938;48.652;9.292;2023-04-25T05:59:51;8.32;;;4.82;;
73642;SDS011;61938;48.652;9.292;2023-04-25T06:02:17;7.78;;;4.35;;
73642;SDS011;61938;48.652;9.292;2023-04-25T06:04:43;6.45;;;4.38;;
73642;SDS011;61938;48.652;9.292;2023-04-25T06:07:08;7.90;;;4.10;;
73642;SDS011;61938;48.652;9.292;2023-04-25T06:09:34;10.50;;;4.60;;
73642;SDS011;61938;48.652;9.292;2023-04-25T06:12:00;11.57;;;4.85;;
73642;SDS011;61938;48.652;9.292;2023-04-25T06:14:26;7.72;;;4.60;;
73642;SDS011;61938;48.652;9.292;2023-04-25T06:16:52;9.13;;;4.60;;
73642;SDS011;61938;48.652;9.292;2023-04-25T06:19:17;9.63;;;4.50;;
73642;SDS011;61938;48.652;9.292;2023-04-25T06:21:43;8.57;;;4.57;;
73642;SDS011;61938;48.652;9.292;2023-04-25T06:24:09;7.25;;;4.35;;
73642;SDS011;61938;48.652;9.292;2023-04-25T06:26:35;10.77;;;5.32;;
73642;SDS011;61938;48.652;9.292;2023-04-25T06:29:00;8.68;;;5.32;;
73642;SDS011;61938;48.652;9.292;2023-04-25T06:31:26;7.93;;;5.10;;
73642;SDS011;61938;48.652;9.292;2023-04-25T06:33:51;9.98;;;5.30;;
73642;SDS011;61938;48.652;9.292;2023-04-25T06:36:19;12.73;;;5.25;;
73642;SDS011;61938;48.652;9.292;2023-04-25T06:38:49;10.52;;;5.25;;
73642;SDS011;61938;48.652;9.292;2023-04-25T06:41:16;12.63;;;5.30;;
73642;SDS011;61938;48.652;9.292;2023-04-25T06:43:41;10.77;;;4.93;;
73642;SDS011;61938;48.652;9.292;2023-04-25T06:46:06;10.60;;;5.40;;
73642;SDS011;61938;48.652;9.292;2023-04-25T06:48:32;11.20;;;5.22;;
73642;SDS011;61938;48.652;9.292;2023-04-25T06:50:57;9.18;;;4.57;;
73642;SDS011;61938;48.652;9.292;2023-04-25T06:53:23;8.23;;;4.75;;
73642;SDS011;61938;48.652;9.292;2023-04-25T06:55:49;8.48;;;5.47;;
73642;SDS011;61938;48.652;9.292;2023-04-25T06:58:15;13.05;;;5.63;;
73642;SDS011;61938;48.652;9.292;2023-04-25T07:00:40;12.32;;;5.43;;
73642;SDS011;61938;48.652;9.292;2023-04-25T07:03:06;15.48;;;5.60;;
73642;SDS011;61938;48.652;9.292;2023-04-25T07:05:31;10.40;;;5.28;;
73642;SDS011;61938;48.652;9.292;2023-04-25T07:07:57;21.52;;;6.60;;
73642;SDS011;61938;48.652;9.292;2023-04-25T07:10:22;11.77;;;5.82;;
73642;SDS011;61938;48.652;9.292;2023-04-25T07:12:48;10.68;;;5.43;;
73642;SDS011;61938;48.652;9.292;2023-04-25T07:15:13;14.65;;;5.00;;
73642;SDS011;61938;48.652;9.292;2023-04-25T07:17:39;7.93;;;4.93;;
73642;SDS011;61938;48.652;9.292;2023-04-25T07:20:04;9.65;;;4.85;;
73642;SDS011;61938;48.652;9.292;2023-04-25T07:22:31;11.73;;;5.20;;
73642;SDS011;61938;48.652;9.292;2023-04-25T07:24:57;8.30;;;4.90;;
73642;SDS011;61938;48.652;9.292;2023-04-25T07:27:22;13.90;;;6.43;;
73642;SDS011;61938;48.652;9.292;2023-04-25T07:29:48;13.05;;;5.35;;
73642;SDS011;61938;48.652;9.292;2023-04-25T07:32:13;10.35;;;5.70;;
73642;SDS011;61938;48.652;9.292;2023-04-25T07:34:39;13.05;;;5.75;;
73642;SDS011;61938;48.652;9.292;2023-04-25T07:37:05;12.38;;;6.50;;
73642;SDS011;61938;48.652;9.292;2023-04-25T07:39:30;9.98;;;5.97;;
73642;SDS011;61938;48.652;9.292;2023-04-25T07:41:56;14.32;;;6.53;;
73642;SDS011;61938;48.652;9.292;2023-04-25T07:44:23;19.85;;;7.75;;
73642;SDS011;61938;48.652;9.292;2023-04-25T07:46:49;13.40;;;6.32;;
73642;SDS011;61938;48.652;9.292;2023-04-25T07:49:15;7.07;;;4.88;;
73642;SDS011;61938;48.652;9.292;2023-04-25T07:51:40;7.90;;;5.03;;
73642;SDS011;61938;48.652;9.292;2023-04-25T07:54:08;6.55;;;4.18;;
73642;SDS011;61938;48.652;9.292;2023-04-25T07:56:34;5.63;;;3.90;;
73642;SDS011;61938;48.652;9.292;2023-04-25T07:59:00;8.00;;;4.07;;
73642;SDS011;61938;48.652;9.292;2023-04-25T08:01:25;10.15;;;5.20;;
73642;SDS011;61938;48.652;9.292;2023-04-25T08:03:51;10.32;;;6.15;;
73642;SDS011;61938;48.652;9.292;2023-04-25T08:06:17;9.65;;;5.38;;
73642;SDS011;61938;48.652;9.292;2023-04-25T08:08:43;10.43;;;5.40;;
73642;SDS011;61938;48.652;9.292;2023-04-25T08:11:08;8.77;;;5.75;;
73642;SDS011;61938;48.652;9.292;2023-04-25T08:13:34;9.07;;;5.22;;
73642;SDS011;61938;48.652;9.292;2023-04-25T08:16:00;6.68;;;4.32;;
73642;SDS011;61938;48.652;9.292;2023-04-25T08:18:25;5.75;;;4.05;;
73642;SDS011;61938;48.652;9.292;2023-04-25T08:20:51;9.30;;;4.93;;
73642;SDS011;61938;48.652;9.292;2023-04-25T08:23:16;7.05;;;4.63;;
73642;SDS011;61938;48.652;9.292;2023-04-25T08:25:42;10.20;;;5.43;;
73642;SDS011;61938;48.652;9.292;2023-04-25T08:28:07;10.68;;;5.60;;
73642;SDS011;61938;48.652;9.292;2023-04-25T08:30:33;9.55;;;5.70;;
73642;SDS011;61938;48.652;9.292;2023-04-25T08:32:58;12.68;;;6.38;;
73642;SDS011;61938;48.652;9.292;2023-04-25T08:35:24;15.90;;;8.07;;
73642;SDS011;61938;48.652;9.292;2023-04-25T08:37:50;21.77;;;9.65;;
73642;SDS011;61938;48.652;9.292;2023-04-25T08:40:16;17.50;;;9.23;;
73642;SDS011;61938;48.652;9.292;2023-04-25T08:42:41;14.25;;;7.70;;
73642;SDS011;61938;48.652;9.292;2023-04-25T08:45:08;16.58;;;8.85;;
73642;SDS011;61938;48.652;9.292;2023-04-25T08:47:34;18.20;;;9.98;;
73642;SDS011;61938;48.652;9.292;2023-04-25T08:50:02;18.48;;;9.35;;
73642;SDS011;61938;48.652;9.292;2023-04-25T08:52:32;10.73;;;7.05;;
73642;SDS011;61938;48.652;9.292;2023-04-25T08:55:08;14.93;;;7.82;;
73642;SDS011;61938;48.652;9.292;2023-04-25T08:57:34;16.08;;;7.50;;
73642;SDS011;61938;48.652;9.292;2023-04-25T09:00:00;11.98;;;7.03;;
73642;SDS011;61938;48.652;9.292;2023-04-25T09:02:26;13.30;;;6.47;;
73642;SDS011;61938;48.652;9.292;2023-04-25T09:04:53;13.07;;;6.45;;
73642;SDS011;61938;48.652;9.292;2023-04-25T09:07:20;12.73;;;6.22;;
73642;SDS011;61938;48.652;9.292;2023-04-25T09:09:46;12.68;;;6.70;;
73642;SDS011;61938;48.652;9.292;2023-04-25T09:12:12;11.13;;;6.70;;
73642;SDS011;61938;48.652;9.292;2023-04-25T09:14:37;12.02;;;7.07;;
73642;SDS011;61938;48.652;9.292;2023-04-25T09:17:04;13.10;;;7.75;;
73642;SDS011;61938;48.652;9.292;2023-04-25T09:19:36;17.75;;;7.80;;
73642;SDS011;61938;48.652;9.292;2023-04-25T09:22:05;14.25;;;7.15;;
73642;SDS011;61938;48.652;9.292;2023-04-25T09:27:08;16.60;;;7.82;;
73642;SDS011;61938;48.652;9.292;2023-04-25T09:29:36;11.85;;;7.22;;
73642;SDS011;61938;48.652;9.292;2023-04-25T09:32:14;13.98;;;6.72;;
73642;SDS011;61938;48.652;9.292;2023-04-25T09:37:32;14.82;;;7.32;;
73642;SDS011;61938;48.652;9.292;2023-04-25T09:39:58;14.52;;;6.78;;
73642;SDS011;61938;48.652;9.292;2023-04-25T09:42:28;11.63;;;6.88;;
73642;SDS011;61938;48.652;9.292;2023-04-25T09:44:56;11.65;;;6.82;;
73642;SDS011;61938;48.652;9.292;2023-04-25T09:47:23;14.85;;;7.32;;
73642;SDS011;61938;48.652;9.292;2023-04-25T09:49:50;13.27;;;7.47;;
73642;SDS011;61938;48.652;9.292;2023-04-25T09:52:17;9.98;;;6.80;;
73642;SDS011;61938;48.652;9.292;2023-04-25T09:54:44;14.70;;;6.82;;
73642;SDS011;61938;48.652;9.292;2023-04-25T09:59:42;12.73;;;6.25;;
73642;SDS011;61938;48.652;9.292;2023-04-25T10:02:16;13.88;;;6.80;;
73642;SDS011;61938;48.652;9.292;2023-04-25T10:04:46;10.88;;;6.35;;
73642;SDS011;61938;48.652;9.292;2023-04-25T10:07:14;9.60;;;6.00;;
73642;SDS011;61938;48.652;9.292;2023-04-25T10:09:39;11.68;;;6.30;;
73642;SDS011;61938;48.652;9.292;2023-04-25T10:12:06;12.30;;;7.10;;
73642;SDS011;61938;48.652;9.292;2023-04-25T10:14:32;12.15;;;6.35;;
73642;SDS011;61938;48.652;9.292;2023-04-25T10:16:59;12.52;;;7.38;;
73642;SDS011;61938;48.652;9.292;2023-04-25T10:19:25;10.93;;;6.40;;
73642;SDS011;61938;48.652;9.292;2023-04-25T10:21:52;10.60;;;6.50;;
73642;SDS011;61938;48.652;9.292;2023-04-25T10:24:27;10.60;;;5.97;;
73642;SDS011;61938;48.652;9.292;2023-04-25T10:26:52;9.10;;;5.30;;
73642;SDS011;61938;48.652;9.292;2023-04-25T10:29:22;8.32;;;5.47;;
73642;SDS011;61938;48.652;9.292;2023-04-25T10:31:49;7.82;;;4.93;;
73642;SDS011;61938;48.652;9.292;2023-04-25T10:34:15;10.95;;;5.50;;
73642;SDS011;61938;48.652;9.292;2023-04-25T10:36:42;5.45;;;3.88;;
73642;SDS011;61938;48.652;9.292;2023-04-25T10:39:08;7.32;;;4.47;;
73642;SDS011;61938;48.652;9.292;2023-04-25T10:41:46;6.75;;;3.72;;
73642;SDS011;61938;48.652;9.292;2023-04-25T10:44:13;3.58;;;2.38;;
73642;SDS011;61938;48.652;9.292;2023-04-25T10:46:39;4.05;;;2.58;;
73642;SDS011;61938;48.652;9.292;2023-04-25T10:49:05;3.28;;;2.05;;
73642;SDS011;61938;48.652;9.292;2023-04-25T10:51:34;5.20;;;2.45;;
73642;SDS011;61938;48.652;9.292;2023-04-25T10:54:02;2.53;;;1.90;;
73642;SDS011;61938;48.652;9.292;2023-04-25T10:56:30;3.03;;;2.00;;
73642;SDS011;61938;48.652;9.292;2023-04-25T10:59:18;5.25;;;2.70;;
73642;SDS011;61938;48.652;9.292;2023-04-25T11:01:46;3.83;;;2.10;;
73642;SDS011;61938;48.652;9.292;2023-04-25T11:04:29;5.13;;;2.70;;
73642;SDS011;61938;48.652;9.292;2023-04-25T11:09:30;5.38;;;3.45;;
73642;SDS011;61938;48.652;9.292;2023-04-25T11:11:58;2.70;;;1.73;;
73642;SDS011;61938;48.652;9.292;2023-04-25T11:14:25;5.85;;;3.38;;
73642;SDS011;61938;48.652;9.292;2023-04-25T11:16:54;4.03;;;2.60;;
73642;SDS011;61938;48.652;9.292;2023-04-25T11:19:22;4.13;;;2.80;;
73642;SDS011;61938;48.652;9.292;2023-04-25T11:21:48;3.58;;;2.67;;
73642;SDS011;61938;48.652;9.292;2023-04-25T11:24:15;2.45;;;1.90;;
73642;SDS011;61938;48.652;9.292;2023-04-25T11:26:42;4.15;;;1.85;;
73642;SDS011;61938;48.652;9.292;2023-04-25T11:29:08;6.93;;;1.35;;
73642;SDS011;61938;48.652;9.292;2023-04-25T11:31:34;2.70;;;1.60;;
73642;SDS011;61938;48.652;9.292;2023-04-25T11:33:59;2.20;;;1.20;;
73642;SDS011;61938;48.652;9.292;2023-04-25T11:36:25;3.28;;;1.63;;
73642;SDS011;61938;48.652;9.292;2023-04-25T11:38:52;1.73;;;1.13;;
73642;SDS011;61938;48.652;9.292;2023-04-25T11:41:18;1.42;;;0.90;;
73642;SDS011;61938;48.652;9.292;2023-04-25T11:43:45;2.97;;;2.20;;
73642;SDS011;61938;48.652;9.292;2023-04-25T11:46:10;3.67;;;2.10;;
73642;SDS011;61938;48.652;9.292;2023-04-25T11:48:39;6.05;;;3.60;;
73642;SDS011;61938;48.652;9.292;2023-04-25T11:51:05;6.22;;;4.47;;
73642;SDS011;61938;48.652;9.292;2023-04-25T11:53:31;10.80;;;6.72;;
73642;SDS011;61938;48.652;9.292;2023-04-25T11:55:57;8.85;;;6.00;;
73642;SDS011;61938;48.652;9.292;2023-04-25T11:58:22;8.20;;;4.70;;
73642;SDS011;61938;48.652;9.292;2023-04-25T12:00:48;5.55;;;3.80;;
73642;SDS011;61938;48.652;9.292;2023-04-25T12:03:14;4.55;;;2.75;;
73642;SDS011;61938;48.652;9.292;2023-04-25T12:05:39;4.47;;;2.90;;
73642;SDS011;61938;48.652;9.292;2023-04-25T12:08:12;6.50;;;3.60;;
73642;SDS011;61938;48.652;9.292;2023-04-25T12:10:38;5.05;;;3.45;;
73642;SDS011;61938;48.652;9.292;2023-04-25T12:13:21;5.47;;;3.47;;
73642;SDS011;61938;48.652;9.292;2023-04-25T12:15:50;12.00;;;6.35;;
73642;SDS011;61938;48.652;9.292;2023-04-25T12:18:20;7.70;;;3.80;;
73642;SDS011;61938;48.652;9.292;2023-04-25T12:20:47;6.78;;;4.40;;
73642;SDS011;61938;48.652;9.292;2023-04-25T12:23:13;6.25;;;4.00;;
73642;SDS011;61938;48.652;9.292;2023-04-25T12:25:39;6.72;;;4.57;;
73642;SDS011;61938;48.652;9.292;2023-04-25T12:33:24;13.93;;;4.70;;
73642;SDS011;61938;48.652;9.292;2023-04-25T12:35:51;8.40;;;4.45;;
73642;SDS011;61938;48.652;9.292;2023-04-25T12:38:23;8.38;;;4.40;;
73642;SDS011;61938;48.652;9.292;2023-04-25T12:40:50;6.13;;;4.05;;
73642;SDS011;61938;48.652;9.292;2023-04-25T12:43:16;6.50;;;4.05;;
73642;SDS011;61938;48.652;9.292;2023-04-25T12:45:42;14.07;;;4.88;;
73642;SDS011;61938;48.652;9.292;2023-04-25T12:48:07;6.75;;;4.20;;
73642;SDS011;61938;48.652;9.292;2023-04-25T12:50:33;10.55;;;5.68;;
73642;SDS011;61938;48.652;9.292;2023-04-25T12:52:58;9.32;;;5.47;;
73642;SDS011;61938;48.652;9.292;2023-04-25T12:55:24;10.15;;;6.18;;
73642;SDS011;61938;48.652;9.292;2023-04-25T12:57:51;9.95;;;6.25;;
73642;SDS011;61938;48.652;9.292;2023-04-25T13:00:17;11.40;;;6.25;;
73642;SDS011;61938;48.652;9.292;2023-04-25T13:02:44;13.23;;;6.85;;
73642;SDS011;61938;48.652;9.292;2023-04-25T13:05:11;12.30;;;6.50;;
73642;SDS011;61938;48.652;9.292;2023-04-25T13:07:37;8.88;;;5.90;;
73642;SDS011;61938;48.652;9.292;2023-04-25T13:10:03;11.35;;;6.82;;
73642;SDS011;61938;48.652;9.292;2023-04-25T13:12:30;12.38;;;7.00;;
73642;SDS011;61938;48.652;9.292;2023-04-25T13:14:55;10.73;;;5.82;;
73642;SDS011;61938;48.652;9.292;2023-04-25T13:17:21;9.48;;;6.00;;
73642;SDS011;61938;48.652;9.292;2023-04-25T13:19:46;9.10;;;6.18;;
73642;SDS011;61938;48.652;9.292;2023-04-25T13:22:12;13.00;;;6.22;;
73642;SDS011;61938;48.652;9.292;2023-04-25T13:24:40;9.48;;;5.60;;
73642;SDS011;61938;48.652;9.292;2023-04-25T13:27:05;10.98;;;6.85;;
73642;SDS011;61938;48.652;9.292;2023-04-25T13:29:31;9.85;;;5.65;;
73642;SDS011;61938;48.652;9.292;2023-04-25T13:31:59;8.30;;;5.53;;
73642;SDS011;61938;48.652;9.292;2023-04-25T13:34:25;11.52;;;6.38;;
73642;SDS011;61938;48.652;9.292;2023-04-25T13:36:51;10.40;;;5.72;;
73642;SDS011;61938;48.652;9.292;2023-04-25T13:39:16;9.13;;;5.70;;
73642;SDS011;61938;48.652;9.292;2023-04-25T13:41:42;9.25;;;5.18;;
73642;SDS011;61938;48.652;9.292;2023-04-25T13:44:07;9.02;;;5.38;;
73642;SDS011;61938;48.652;9.292;2023-04-25T13:46:33;9.77;;;6.18;;
73642;SDS011;61938;48.652;9.292;2023-04-25T13:48:58;10.05;;;6.20;;
73642;SDS011;61938;48.652;9.292;2023-04-25T13:51:24;11.10;;;6.15;;
73642;SDS011;61938;48.652;9.292;2023-04-25T13:53:50;11.88;;;6.38;;
73642;SDS011;61938;48.652;9.292;2023-04-25T13:56:16;10.93;;;6.35;;
73642;SDS011;61938;48.652;9.292;2023-04-25T13:58:44;10.38;;;6.85;;
73642;SDS011;61938;48.652;9.292;2023-04-25T14:01:10;13.60;;;6.75;;
73642;SDS011;61938;48.652;9.292;2023-04-25T14:03:35;11.40;;;6.93;;
73642;SDS011;61938;48.652;9.292;2023-04-25T14:06:01;10.82;;;6.72;;
73642;SDS011;61938;48.652;9.292;2023-04-25T14:08:26;10.70;;;6.45;;
73642;SDS011;61938;48.652;9.292;2023-04-25T14:10:53;13.52;;;6.32;;
73642;SDS011;61938;48.652;9.292;2023-04-25T14:13:19;13.93;;;7.30;;
73642;SDS011;61938;48.652;9.292;2023-04-25T14:15:44;14.75;;;7.95;;
73642;SDS011;61938;48.652;9.292;2023-04-25T14:18:10;18.02;;;8.27;;
73642;SDS011;61938;48.652;9.292;2023-04-25T14:20:35;9.65;;;6.45;;
73642;SDS011;61938;48.652;9.292;2023-04-25T14:23:01;11.43;;;6.43;;
73642;SDS011;61938;48.652;9.292;2023-04-25T14:25:27;13.63;;;6.80;;
73642;SDS011;61938;48.652;9.292;2023-04-25T14:27:54;11.65;;;7.63;;
73642;SDS011;61938;48.652;9.292;2023-04-25T14:30:20;11.18;;;5.95;;
73642;SDS011;61938;48.652;9.292;2023-04-25T14:32:47;9.68;;;5.80;;
73642;SDS011;61938;48.652;9.292;2023-04-25T14:35:16;12.25;;;5.93;;
73642;SDS011;61938;48.652;9.292;2023-04-25T14:37:42;13.57;;;6.43;;
73642;SDS011;61938;48.652;9.292;2023-04-25T14:40:08;12.05;;;6.10;;
73642;SDS011;61938;48.652;9.292;2023-04-25T14:42:35;16.85;;;7.72;;
73642;SDS011;61938;48.652;9.292;2023-04-25T14:45:02;13.93;;;7.97;;
73642;SDS011;61938;48.652;9.292;2023-04-25T14:47:30;18.13;;;9.18;;
73642;SDS011;61938;48.652;9.292;2023-04-25T14:49:56;20.25;;;9.55;;
73642;SDS011;61938;48.652;9.292;2023-04-25T14:52:22;20.17;;;9.00;;